Andover, Ohio
Current Conditions -  °F | °C
As of 9:37 PM on Thursday 20 Nov 2014 (Local Time) from KHZY Reporting Station
Light Snow Light Snow  
Wind Chill:   Ceiling: 2500
Heat Index: 22°   Visibility: 2.5mi
Dew Point: 18°   Wind: 15mph
Humidity: 85%   Direction: 270°W
Pressure: 30.05"   Gusts: NA
Location:  41.61°N, 80.57°W
Report Text: KHZY 210237Z AUTO 27013KT 2 1/2SM -SN BR BKN025 OVC039 M06/M08 A3005 RMK AO2 VIS 1 1/4V5 P0000 T10561078
Loading
Personal Weather Stations






























Interactive Weather Map New forecast layout! Learn more

10-Day Weather Forecast

Advertisements
Track Severe Weather on mobile